createdAt,value
2022-09-28T00:03:07.654Z,81.39
2022-09-28T00:06:44.471Z,81.05
2022-09-28T00:10:23.725Z,81.04
2022-09-28T00:14:03.842Z,81.24
2022-09-28T00:17:34.826Z,81.23
2022-09-28T00:21:13.898Z,81.21
2022-09-28T00:24:48.480Z,81.29
2022-09-28T00:28:24.737Z,81.25
2022-09-28T00:32:04.898Z,81.53
2022-09-28T00:35:38.446Z,81.74
2022-09-28T00:39:17.622Z,81.60
2022-09-28T00:42:52.000Z,81.84
2022-09-28T00:46:33.904Z,81.94
2022-09-28T00:50:09.089Z,82.06
2022-09-28T00:53:44.644Z,82.21
2022-09-28T00:57:21.400Z,82.14
2022-09-28T01:00:59.334Z,82.29
2022-09-28T01:04:32.759Z,82.20
2022-09-28T01:08:11.018Z,82.25
2022-09-28T01:11:46.760Z,82.54
2022-09-28T01:15:26.924Z,82.56
2022-09-28T01:19:29.164Z,82.35
2022-09-28T01:23:00.499Z,82.57
2022-09-28T01:26:25.519Z,82.59
2022-09-28T01:30:07.838Z,82.19
2022-09-28T01:33:35.698Z,81.99
2022-09-28T01:37:09.363Z,82.00
2022-09-28T01:40:42.173Z,81.97
2022-09-28T01:44:21.021Z,81.89
2022-09-28T01:47:58.720Z,81.86
2022-09-28T01:51:50.040Z,81.88
2022-09-28T01:55:21.080Z,81.96
2022-09-28T01:58:50.898Z,82.02
2022-09-28T02:02:29.698Z,82.06
2022-09-28T02:06:13.720Z,82.09
2022-09-28T02:09:44.200Z,82.07
2022-09-28T02:13:23.666Z,82.13
2022-09-28T02:16:52.222Z,82.09
2022-09-28T02:20:26.672Z,82.24
2022-09-28T02:24:10.739Z,82.37
2022-09-28T02:27:45.518Z,82.51
2022-09-28T02:31:16.329Z,82.57
2022-09-28T02:34:52.642Z,82.81
2022-09-28T02:38:31.429Z,83.00
2022-09-28T02:42:08.900Z,83.30
2022-09-28T02:46:13.893Z,83.39
2022-09-28T02:49:43.319Z,83.58
2022-09-28T02:53:19.681Z,83.75
2022-09-28T02:56:44.584Z,83.76
2022-09-28T03:00:21.955Z,83.81
2022-09-28T03:04:01.541Z,83.94
2022-09-28T03:07:29.640Z,84.04
2022-09-28T03:11:07.480Z,84.10
2022-09-28T03:14:37.449Z,84.69
2022-09-28T03:18:14.362Z,84.93
2022-09-28T03:21:50.877Z,84.80
2022-09-28T03:25:29.675Z,84.78
2022-09-28T03:29:05.524Z,84.64
2022-09-28T03:32:41.642Z,84.84
2022-09-28T03:36:18.361Z,84.97
2022-09-28T03:39:55.401Z,84.58
2022-09-28T03:43:31.888Z,84.63
2022-09-28T03:47:09.295Z,84.69
2022-09-28T03:50:45.479Z,84.76
2022-09-28T03:54:22.054Z,84.78
2022-09-28T03:57:58.879Z,84.99
2022-09-28T04:01:35.658Z,84.90
2022-09-28T04:05:12.656Z,85.03
2022-09-28T04:08:49.240Z,84.90
2022-09-28T04:12:26.040Z,85.03
2022-09-28T04:16:02.908Z,85.20
2022-09-28T04:19:39.605Z,85.34
2022-09-28T04:23:17.161Z,85.55
2022-09-28T04:27:13.001Z,85.63
2022-09-28T04:30:30.116Z,85.78
2022-09-28T04:34:07.114Z,86.09
2022-09-28T04:37:43.743Z,86.16
2022-09-28T04:41:22.641Z,86.19
2022-09-28T04:44:58.960Z,86.14
2022-09-28T04:48:34.130Z,86.17
2022-09-28T04:52:17.892Z,86.51
2022-09-28T04:56:02.497Z,86.53
2022-09-28T04:59:24.840Z,86.61
2022-09-28T05:03:01.204Z,86.82
2022-09-28T05:06:38.039Z,86.99
2022-09-28T05:10:16.229Z,87.02
2022-09-28T05:13:52.148Z,87.04
2022-09-28T05:17:29.555Z,86.91
2022-09-28T05:21:11.664Z,86.96
2022-09-28T05:24:42.941Z,87.10
2022-09-28T05:28:26.249Z,87.22
2022-09-28T05:31:57.784Z,87.25
2022-09-28T05:35:34.407Z,87.45
2022-09-28T05:39:10.376Z,87.49
2022-09-28T05:42:46.018Z,87.38
2022-09-28T05:46:24.345Z,87.32
2022-09-28T05:49:59.657Z,87.45
2022-09-28T05:53:36.999Z,87.41
2022-09-28T05:57:14.079Z,87.56
2022-09-28T06:00:55.908Z,87.65
2022-09-28T06:04:27.200Z,87.62
2022-09-28T06:08:05.464Z,87.52
2022-09-28T06:11:40.431Z,87.46
2022-09-28T06:15:17.559Z,87.56
2022-09-28T06:18:54.419Z,87.56
2022-09-28T06:22:31.275Z,87.75
2022-09-28T06:26:08.473Z,87.65
2022-09-28T06:29:44.485Z,87.66
2022-09-28T06:33:22.022Z,87.69
2022-09-28T06:37:00.305Z,87.73
2022-09-28T06:40:35.926Z,87.75
2022-09-28T06:44:11.581Z,87.82
2022-09-28T06:47:57.047Z,87.86
2022-09-28T06:51:25.385Z,87.92
2022-09-28T06:55:21.578Z,88.01
2022-09-28T06:58:38.982Z,88.08
2022-09-28T07:02:16.227Z,88.11
2022-09-28T07:05:54.580Z,88.22
2022-09-28T07:09:33.142Z,88.30
2022-09-28T07:13:07.945Z,88.31
2022-09-28T07:17:09.305Z,88.50
2022-09-28T07:20:20.121Z,88.63
2022-09-28T07:23:56.657Z,88.59
2022-09-28T07:27:35.458Z,88.71
2022-09-28T07:31:11.148Z,88.68
2022-09-28T07:34:49.939Z,88.77
2022-09-28T07:38:26.306Z,88.85
2022-09-28T07:42:02.942Z,88.83
2022-09-28T07:45:38.556Z,88.73
2022-09-28T07:49:16.672Z,88.78
2022-09-28T07:52:51.152Z,88.89
2022-09-28T07:56:28.114Z,88.93
2022-09-28T08:00:09.453Z,89.08
2022-09-28T08:03:46.633Z,88.97
2022-09-28T08:07:24.201Z,89.08
2022-09-28T08:10:58.525Z,89.01
2022-09-28T08:14:35.266Z,89.27
2022-09-28T08:18:11.408Z,89.41
2022-09-28T08:21:48.541Z,89.43
2022-09-28T08:25:25.222Z,89.08
2022-09-28T08:29:01.789Z,88.86
2022-09-28T08:32:38.743Z,88.36
2022-09-28T08:36:15.776Z,88.26
2022-09-28T08:39:53.061Z,88.20
2022-09-28T08:43:48.152Z,88.09
2022-09-28T08:47:51.119Z,88.17
2022-09-28T08:51:26.978Z,88.10
2022-09-28T08:54:48.981Z,88.17
2022-09-28T08:58:28.900Z,88.12
2022-09-28T09:02:00.682Z,88.23
2022-09-28T09:05:52.032Z,88.34
2022-09-28T09:09:22.934Z,88.29
2022-09-28T09:12:54.587Z,88.23
2022-09-28T09:16:43.022Z,88.26
2022-09-28T09:20:39.791Z,88.24
2022-09-28T09:24:18.315Z,88.16
2022-09-28T09:28:02.901Z,88.21
2022-09-28T09:34:59.809Z,88.35
2022-09-28T09:38:42.123Z,88.31
2022-09-28T09:42:23.732Z,88.34
2022-09-28T09:45:56.950Z,88.39
2022-09-28T09:49:28.571Z,88.56
2022-09-28T09:53:05.767Z,88.44
2022-09-28T09:56:39.989Z,88.29
2022-09-28T10:00:14.847Z,88.23
2022-09-28T10:03:48.839Z,88.07
2022-09-28T10:07:29.126Z,88.04
2022-09-28T10:11:09.741Z,88.20
2022-09-28T10:14:36.523Z,88.18
2022-09-28T10:18:16.975Z,88.13
2022-09-28T10:21:53.868Z,88.23
2022-09-28T10:25:27.055Z,88.24
2022-09-28T10:29:11.764Z,88.27
2022-09-28T10:32:43.949Z,88.13
2022-09-28T10:36:17.652Z,88.15
2022-09-28T10:39:56.254Z,87.93
2022-09-28T10:43:36.809Z,87.65
2022-09-28T10:47:14.777Z,87.26
2022-09-28T10:50:59.684Z,87.17
2022-09-28T10:54:23.054Z,87.19
2022-09-28T10:57:59.638Z,87.27
2022-09-28T11:01:35.271Z,87.40
2022-09-28T11:05:22.023Z,87.56
2022-09-28T11:08:50.732Z,87.64
2022-09-28T11:12:29.496Z,87.74
2022-09-28T11:16:02.710Z,87.74
2022-09-28T11:19:39.092Z,87.56
2022-09-28T11:23:31.267Z,87.53
2022-09-28T11:27:00.440Z,87.45
2022-09-28T11:30:33.801Z,87.37
2022-09-28T11:34:31.575Z,87.41
2022-09-28T11:38:05.695Z,87.36
2022-09-28T11:41:58.007Z,87.35
2022-09-28T11:45:27.155Z,87.35
2022-09-28T11:49:00.912Z,87.30
2022-09-28T11:52:40.601Z,87.37
2022-09-28T11:56:11.380Z,87.40
2022-09-28T12:00:16.520Z,87.34
2022-09-28T12:03:45.357Z,87.29
2022-09-28T12:07:08.961Z,87.28
2022-09-28T12:10:45.410Z,87.23
2022-09-28T12:14:36.120Z,86.97
2022-09-28T12:18:04.125Z,86.84
2022-09-28T12:21:48.638Z,86.93
2022-09-28T12:25:05.198Z,86.77
2022-09-28T12:28:44.417Z,86.67
2022-09-28T12:32:54.099Z,86.58
2022-09-28T12:36:26.986Z,86.47
2022-09-28T12:40:22.515Z,86.27
2022-09-28T12:43:54.813Z,86.13
2022-09-28T12:47:06.175Z,85.83
2022-09-28T12:50:58.447Z,85.67
2022-09-28T12:54:34.642Z,85.51
2022-09-28T12:58:36.851Z,85.30
2022-09-28T13:01:45.489Z,85.12
2022-09-28T13:05:29.731Z,85.00
2022-09-28T13:09:04.885Z,84.92
2022-09-28T13:12:44.854Z,84.75
2022-09-28T13:16:42.552Z,84.56
2022-09-28T13:20:04.100Z,84.43
2022-09-28T13:23:43.542Z,84.39
2022-09-28T13:27:23.535Z,84.32
2022-09-28T13:30:47.205Z,84.27
2022-09-28T13:34:26.907Z,84.17
2022-09-28T13:38:18.189Z,83.93
2022-09-28T13:41:40.736Z,83.95
2022-09-28T13:45:35.345Z,83.71
2022-09-28T13:49:42.784Z,83.54
2022-09-28T13:53:31.585Z,83.64
2022-09-28T13:56:50.122Z,83.82
2022-09-28T14:00:36.729Z,83.54
2022-09-28T14:04:14.248Z,83.19
2022-09-28T14:08:05.684Z,83.14
2022-09-28T14:11:36.135Z,82.83
2022-09-28T14:14:52.186Z,82.64
2022-09-28T14:18:32.087Z,82.73
2022-09-28T14:22:03.458Z,82.77
2022-09-28T14:25:57.384Z,82.64
2022-09-28T14:29:30.214Z,82.50
2022-09-28T14:32:57.211Z,82.25
2022-09-28T14:37:00.181Z,82.02
2022-09-28T14:40:36.732Z,82.08
2022-09-28T14:43:50.253Z,82.01
2022-09-28T14:48:04.676Z,81.93
2022-09-28T14:51:33.188Z,81.57
2022-09-28T14:54:48.477Z,81.45
2022-09-28T14:58:30.125Z,81.29
2022-09-28T15:02:01.366Z,81.15
2022-09-28T15:05:42.159Z,81.14
2022-09-28T15:09:27.501Z,80.71
2022-09-28T15:12:45.247Z,80.27
2022-09-28T15:16:25.260Z,80.19
2022-09-28T15:20:31.477Z,80.22
2022-09-28T15:23:47.214Z,80.15
2022-09-28T15:27:23.372Z,79.98
2022-09-28T15:31:03.259Z,79.78
2022-09-28T15:34:55.999Z,79.87
2022-09-28T15:38:17.823Z,79.52
2022-09-28T15:41:50.981Z,79.38
2022-09-28T15:45:37.474Z,80.09
2022-09-28T15:49:04.767Z,79.95
2022-09-28T15:52:53.046Z,79.34
2022-09-28T15:56:16.116Z,79.31
2022-09-28T15:59:59.666Z,78.99
2022-09-28T16:03:31.440Z,78.79
2022-09-28T16:07:18.639Z,78.59
2022-09-28T16:10:57.061Z,78.22
2022-09-28T16:14:24.259Z,78.07
2022-09-28T16:18:02.789Z,78.12
2022-09-28T16:21:47.098Z,77.86
2022-09-28T16:25:25.302Z,77.33
2022-09-28T16:28:52.154Z,77.29
2022-09-28T16:32:27.765Z,77.14
2022-09-28T16:36:03.374Z,77.85
2022-09-28T16:39:39.196Z,78.01
2022-09-28T16:43:27.154Z,77.94
2022-09-28T16:46:55.315Z,77.67
2022-09-28T16:50:28.324Z,77.24
2022-09-28T16:54:42.725Z,77.51
2022-09-28T16:57:52.527Z,77.22
2022-09-28T17:01:19.743Z,77.70
2022-09-28T17:04:57.784Z,76.92
2022-09-28T17:08:33.873Z,76.68
2022-09-28T17:12:18.464Z,76.96
2022-09-28T17:15:50.855Z,76.85
2022-09-28T17:19:25.762Z,76.38
2022-09-28T17:23:00.743Z,76.84
2022-09-28T17:26:37.265Z,76.90
2022-09-28T17:30:15.084Z,77.19
2022-09-28T17:33:51.551Z,77.22
2022-09-28T17:37:27.759Z,77.90
2022-09-28T17:41:04.773Z,78.41
2022-09-28T17:44:41.404Z,78.43
2022-09-28T17:48:23.579Z,77.96
2022-09-28T17:51:54.501Z,77.90
2022-09-28T17:55:32.424Z,77.50
2022-09-28T17:59:13.738Z,77.50
2022-09-28T18:02:45.784Z,77.08
2022-09-28T18:06:23.085Z,76.53
2022-09-28T18:09:59.835Z,76.40
2022-09-28T18:13:35.070Z,76.23
2022-09-28T18:17:11.805Z,76.74
2022-09-28T18:20:49.094Z,76.98
2022-09-28T18:24:27.247Z,76.66
2022-09-28T18:28:03.791Z,76.76
2022-09-28T18:31:50.211Z,76.58
2022-09-28T18:35:22.790Z,76.68
2022-09-28T18:38:53.397Z,76.90
2022-09-28T18:42:32.016Z,76.85
2022-09-28T18:46:10.456Z,77.18
2022-09-28T18:49:46.576Z,76.76
2022-09-28T18:53:20.344Z,77.15
2022-09-28T18:56:57.544Z,77.18
2022-09-28T19:00:33.768Z,77.50
2022-09-28T19:04:11.964Z,77.69
2022-09-28T19:07:47.041Z,77.48
2022-09-28T19:11:24.804Z,77.40
2022-09-28T19:15:00.885Z,77.26
2022-09-28T19:18:39.109Z,77.54
2022-09-28T19:22:13.854Z,77.59
2022-09-28T19:25:50.697Z,77.64
2022-09-28T19:29:27.451Z,78.03
2022-09-28T19:33:04.565Z,78.20
2022-09-28T19:36:41.215Z,78.25
2022-09-28T19:40:18.159Z,78.87
2022-09-28T19:43:55.823Z,79.45
2022-09-28T19:47:31.945Z,79.36
2022-09-28T19:51:09.005Z,79.57
2022-09-28T19:54:54.533Z,79.63
2022-09-28T19:58:23.039Z,79.50
2022-09-28T20:02:01.696Z,79.74
2022-09-28T20:05:39.114Z,80.10
2022-09-28T20:09:12.439Z,80.37
2022-09-28T20:12:49.190Z,80.77
2022-09-28T20:16:28.025Z,81.01
2022-09-28T20:20:05.162Z,81.24
2022-09-28T20:23:41.976Z,81.49
2022-09-28T20:27:16.338Z,81.58
2022-09-28T20:30:53.786Z,81.52
2022-09-28T20:34:30.247Z,81.73
2022-09-28T20:38:09.933Z,81.87
2022-09-28T20:41:43.689Z,82.07
2022-09-28T20:45:20.593Z,82.19
2022-09-28T20:48:58.058Z,82.48
2022-09-28T20:52:33.861Z,82.71
2022-09-28T20:56:23.609Z,82.69
2022-09-28T20:59:53.748Z,82.74
2022-09-28T21:03:25.208Z,82.85
2022-09-28T21:07:19.860Z,82.94
2022-09-28T21:10:41.137Z,82.84
2022-09-28T21:14:16.097Z,82.73
2022-09-28T21:17:54.673Z,82.83
2022-09-28T21:21:28.328Z,82.80
2022-09-28T21:25:05.124Z,82.77
2022-09-28T21:28:42.514Z,82.59
2022-09-28T21:32:18.626Z,82.43
2022-09-28T21:35:55.214Z,82.31
2022-09-28T21:43:08.892Z,81.58
2022-09-28T21:46:45.556Z,81.33
2022-09-28T21:50:24.922Z,81.34
2022-09-28T21:53:59.435Z,81.43
2022-09-28T21:57:35.942Z,81.55
2022-09-28T22:01:32.008Z,81.45
2022-09-28T22:04:49.455Z,81.23
2022-09-28T22:08:26.431Z,81.15
2022-09-28T22:12:05.477Z,81.04
2022-09-28T22:15:40.206Z,81.07
2022-09-28T22:19:17.210Z,81.21
2022-09-28T22:22:53.865Z,81.44
2022-09-28T22:26:32.313Z,81.51
2022-09-28T22:30:07.734Z,81.59
2022-09-28T22:33:44.371Z,81.84
2022-09-28T22:37:21.500Z,81.94
2022-09-28T22:40:58.765Z,82.08
2022-09-28T22:44:53.339Z,82.27
2022-09-28T22:48:11.568Z,82.34
2022-09-28T22:51:47.973Z,82.38
2022-09-28T22:59:02.691Z,82.12
2022-09-28T23:02:38.345Z,82.51
2022-09-28T23:06:18.031Z,82.98
2022-09-28T23:09:51.694Z,83.13
2022-09-28T23:13:31.273Z,83.05
2022-09-28T23:17:24.546Z,83.32
2022-09-28T23:20:42.400Z,83.29
2022-09-28T23:24:19.272Z,83.42
2022-09-28T23:27:55.727Z,83.44
2022-09-28T23:31:34.015Z,83.15
2022-09-28T23:35:10.018Z,82.90
2022-09-28T23:38:46.283Z,82.89
2022-09-28T23:42:22.988Z,82.84
2022-09-28T23:45:59.798Z,82.62
2022-09-28T23:49:36.636Z,82.23
2022-09-28T23:53:15.281Z,82.16
2022-09-28T23:56:50.817Z,82.22
